Decoded Metar for KBHM (BIRMINGHAM in AL, USA) (IATA:BHM) | Meteo·Mobile Aviation Weather
aviador You're here:

KBHM Decoded Metar

BIRMINGHAM in AL, USA
Report Time2019-02-17 14:53:00
UTC Time2019-02-17 15:45:45
Flight Rules lifr LIFR
Wind120° at 08 kt
W.Decomp.*RWY 18: 4.4 kt HW 6.7 kt LCW
RWY 06: 3.6 kt HW 7.1 kt RCW
W.Rank120° ranks 14
Current wind is above 120° avg. (5.8)
Visibility3219 m
Phenomena:Mist
Clouds:Overcast 004 Hf
Expected CloudBase > 400 ft AGL from Temp-Dew spread
Ceiling400 ft
Temp14°C (ISA 0)
Dew Point13°C (94% RH)
AAT12.1°C
QNH1012 hPa
Density Alt915 ft
Elevation646 ft
Report Wrong Elevation
Raw Report
METAR KBHM 171453Z 12008KT 2SM BR OVC004 14/13 A2988 RMK AO2 SFC VIS
3 SLP115 T01390133 53012=

Extra information for KBHM:More info

Metar Taf Metar & Taf Last 4 Metars F.Rules Stats Wind Profile Meteogram Temp Stats Airport Information Weather charts Add Link Nearby VenuesMetar ALERT Operation Metar Decoded Social comments

AIRNAV info for KBHM